Time;durP1;ratioP1;P1;durP2;ratioP2;P2;SDS_P1;SDS_P2;PMS_P1;PMS_P2;Temp;Humidity;BMP_temperature;BMP_pressure;BME280_temperature;BME280_humidity;BME280_pressure;Samples;Min_cycle;Max_cycle;Signal;HPM_P1;HPM_P2
2021/09/27 00:02:35;;;;;;;;;43.00;37.25;;;;;13.92;65.95;101501.66;5175085;27;11503;-72
2021/09/27 00:05:32;;;;;;;;;60.00;47.00;;;;;13.87;65.81;101499.84;5174544;27;11409;-72
2021/09/27 00:08:27;;;;;;;;;51.00;43.75;;;;;13.79;66.04;101503.47;5175137;27;11466;-72
2021/09/27 00:11:26;;;;;;;;;59.50;49.50;;;;;13.69;66.85;101503.84;5162858;27;12208;-72
2021/09/27 00:14:21;;;;;;;;;59.25;50.00;;;;;13.78;66.45;101496.28;5159635;27;11597;-72
2021/09/27 00:17:17;;;;;;;;;60.75;48.75;;;;;13.77;66.72;101516.09;5174993;27;11454;-72
2021/09/27 00:20:13;;;;;;;;;61.75;51.00;;;;;13.72;67.14;101499.59;5174767;27;11432;-71
2021/09/27 00:23:10;;;;;;;;;66.75;51.00;;;;;13.80;67.02;101498.72;5174890;27;11454;-72
2021/09/27 00:26:06;;;;;;;;;64.00;52.25;;;;;13.68;67.50;101505.00;5161086;27;11442;-71
2021/09/27 00:29:03;;;;;;;;;67.75;54.00;;;;;13.54;67.62;101496.06;5175611;27;11426;-71
2021/09/27 00:31:59;;;;;;;;;65.25;50.75;;;;;13.53;67.90;101509.13;5174483;27;11523;-71
2021/09/27 00:34:54;;;;;;;;;58.25;47.50;;;;;13.59;67.61;101507.81;5167515;27;11443;-72
2021/09/27 00:37:50;;;;;;;;;63.50;49.50;;;;;13.44;68.28;101510.31;5140105;27;11446;-72
2021/09/27 00:40:55;;;;;;;;;66.75;53.25;;;;;13.50;68.44;101495.91;5153392;27;11445;-72
2021/09/27 00:43:52;;;;;;;;;63.25;51.00;;;;;13.46;68.79;101497.72;5153780;27;11467;-71
2021/09/27 00:46:47;;;;;;;;;67.25;53.25;;;;;13.39;68.67;101497.41;5171677;27;11554;-71
2021/09/27 00:49:44;;;;;;;;;62.50;48.75;;;;;13.19;69.67;101511.94;5174645;27;11496;-72
2021/09/27 00:52:40;;;;;;;;;65.00;50.00;;;;;13.21;69.17;101504.97;5174114;27;11462;-71
2021/09/27 00:55:36;;;;;;;;;62.50;50.25;;;;;13.28;69.18;101512.78;5174151;27;11529;-71
2021/09/27 00:58:33;;;;;;;;;57.25;45.00;;;;;13.25;69.29;101519.00;5153630;27;12115;-72
2021/09/27 01:01:29;;;;;;;;;64.75;54.00;;;;;13.19;69.27;101523.03;5153450;27;11453;-72
2021/09/27 01:04:25;;;;;;;;;54.75;45.25;;;;;13.13;68.57;101516.88;5139827;27;11506;-72
2021/09/27 01:07:41;;;;;;;;;49.00;40.75;;;;;13.20;68.29;101514.44;5139538;27;11426;-72
2021/09/27 01:11:13;;;;;;;;;47.25;41.00;;;;;13.15;68.38;101522.91;5153490;27;12121;-72
2021/09/27 01:14:44;;;;;;;;;45.50;40.00;;;;;13.00;69.03;101521.44;5153368;27;11443;-71
2021/09/27 01:18:11;;;;;;;;;50.25;41.75;;;;;12.99;68.19;101517.03;5120148;27;11154;-71
2021/09/27 01:21:09;;;;;;;;;46.25;39.00;;;;;12.99;68.29;101519.81;5153329;27;11630;-73
2021/09/27 01:24:42;;;;;;;;;47.75;40.00;;;;;13.11;67.89;101526.66;5142190;27;11441;-71
2021/09/27 01:27:59;;;;;;;;;45.00;40.50;;;;;13.10;68.04;101528.59;5174201;27;11451;-71
2021/09/27 01:31:00;;;;;;;;;49.50;42.50;;;;;13.06;68.05;101525.69;5159981;27;11533;-71
2021/09/27 01:34:06;;;;;;;;;57.00;47.00;;;;;13.00;68.95;101528.94;5174028;27;11467;-71
2021/09/27 01:37:28;;;;;;;;;52.25;45.25;;;;;12.97;68.59;101535.97;5151068;27;12166;-72
2021/09/27 01:40:35;;;;;;;;;52.75;41.25;;;;;12.95;68.46;101527.13;5153023;27;11463;-73
2021/09/27 01:43:43;;;;;;;;;54.75;44.75;;;;;12.90;69.54;101532.88;5139459;27;11660;-71
2021/09/27 01:46:48;;;;;;;;;53.50;46.00;;;;;12.91;69.36;101550.34;5139588;27;11424;-72
2021/09/27 01:49:59;;;;;;;;;47.50;42.00;;;;;12.96;69.71;101548.25;5139342;27;11444;-72
2021/09/27 01:53:04;;;;;;;;;42.75;38.00;;;;;12.80;70.04;101544.28;5142563;27;11424;-72
2021/09/27 01:56:06;;;;;;;;;36.50;33.25;;;;;12.75;69.65;101552.78;5156862;27;12241;-72
2021/09/27 01:59:23;;;;;;;;;46.50;39.00;;;;;12.65;70.43;101537.28;5143421;27;11462;-73
2021/09/27 02:02:24;;;;;;;;;43.00;37.00;;;;;12.64;70.80;101546.72;5156609;27;12030;-73
2021/09/27 02:05:54;;;;;;;;;39.25;36.25;;;;;12.50;71.54;101552.41;5157008;27;11551;-72
2021/09/27 02:09:14;;;;;;;;;43.50;37.00;;;;;12.56;70.36;101549.47;5156440;27;11519;-72
2021/09/27 02:12:20;;;;;;;;;38.00;37.00;;;;;12.57;70.42;101549.16;5156413;27;11168;-71
2021/09/27 02:15:15;;;;;;;;;35.25;32.75;;;;;12.55;70.54;101553.41;5142807;27;11197;-72
2021/09/27 02:17:58;;;;;;;;;26.75;24.75;;;;;12.38;71.37;101549.44;5157672;27;10995;-72
2021/09/27 02:21:11;;;;;;;;;37.50;29.25;;;;;12.30;70.75;101550.22;5156356;27;10861;-73
2021/09/27 02:24:36;;;;;;;;;33.75;33.00;;;;;12.39;70.68;101555.81;5177033;27;10977;-72
2021/09/27 02:27:32;;;;;;;;;41.00;35.75;;;;;12.24;71.14;101562.59;5177426;27;11094;-72
2021/09/27 02:30:43;;;;;;;;;39.00;35.50;;;;;12.32;71.12;101561.81;5177025;27;11173;-72
2021/09/27 02:33:57;;;;;;;;;47.50;42.00;;;;;12.22;71.53;101560.16;5177028;27;11828;-72
2021/09/27 02:37:01;;;;;;;;;44.25;38.75;;;;;12.36;71.31;101564.78;5176959;27;12172;-72
2021/09/27 02:40:23;;;;;;;;;48.00;41.75;;;;;12.18;72.08;101570.25;5177001;27;11461;-71
2021/09/27 02:43:19;;;;;;;;;43.50;37.75;;;;;12.20;72.23;101567.19;5162912;27;11508;-71
2021/09/27 02:46:16;;;;;;;;;53.75;44.00;;;;;12.26;72.00;101571.41;5176829;27;11583;-72
2021/09/27 02:49:14;;;;;;;;;53.25;45.00;;;;;12.26;71.97;101568.66;5176730;27;11475;-72
2021/09/27 02:52:13;;;;;;;;;30.00;27.00;;;;;12.16;72.62;101563.41;5172450;27;11449;-71
2021/09/27 02:55:13;;;;;;;;;55.75;47.75;;;;;12.17;72.45;101567.78;5155945;27;11392;-72
2021/09/27 02:58:16;;;;;;;;;47.00;41.50;;;;;12.17;72.86;101568.63;5155720;27;11551;-72
2021/09/27 03:01:34;;;;;;;;;51.00;43.75;;;;;12.06;73.12;101569.25;5155451;27;11452;-71
2021/09/27 03:04:43;;;;;;;;;51.75;44.25;;;;;12.06;73.22;101572.00;5155694;27;11459;-72
2021/09/27 03:08:12;;;;;;;;;39.50;36.00;;;;;11.93;73.43;101557.91;5155721;27;11405;-71
2021/09/27 03:11:33;;;;;;;;;40.00;37.25;;;;;11.90;73.54;101566.06;5155528;27;11473;-70
2021/09/27 03:15:03;;;;;;;;;52.00;41.75;;;;;11.91;73.51;101565.75;5155438;27;11413;-71
2021/09/27 03:18:07;;;;;;;;;49.25;41.75;;;;;11.86;73.79;101585.28;5155378;27;11521;-71
2021/09/27 03:21:45;;;;;;;;;49.25;43.00;;;;;11.86;73.82;101584.44;5155205;27;11442;-71
2021/09/27 03:25:10;;;;;;;;;44.50;39.75;;;;;11.79;74.58;101571.00;5134291;27;11446;-71
2021/09/27 03:28:10;;;;;;;;;51.00;44.75;;;;;11.76;74.21;101570.84;5156315;27;11470;-71
2021/09/27 03:31:24;;;;;;;;;49.75;43.25;;;;;11.77;74.63;101576.06;5169963;27;11431;-70
2021/09/27 03:34:36;;;;;;;;;54.75;47.25;;;;;11.80;74.68;101575.44;5157055;27;11447;-71
2021/09/27 03:37:38;;;;;;;;;53.00;44.25;;;;;11.83;74.47;101574.00;5153896;27;11494;-71
2021/09/27 03:41:04;;;;;;;;;55.00;47.00;;;;;11.66;75.27;101589.38;5140782;27;11492;-72
2021/09/27 03:44:16;;;;;;;;;48.50;42.50;;;;;11.70;74.90;101593.13;5161843;27;12272;-72
2021/09/27 03:47:28;;;;;;;;;53.75;46.25;;;;;11.68;75.77;101586.28;5173597;27;11611;-71
2021/09/27 03:50:39;;;;;;;;;52.50;45.25;;;;;11.78;75.25;101586.00;5161597;27;11554;-71
2021/09/27 03:53:45;;;;;;;;;52.75;42.25;;;;;11.80;74.88;101588.47;5153085;27;11472;-72
2021/09/27 03:56:51;;;;;;;;;54.75;46.75;;;;;11.79;75.39;101586.81;5163392;27;11440;-72
2021/09/27 03:59:55;;;;;;;;;53.00;44.50;;;;;11.80;75.32;101591.22;5153765;27;11438;-72
2021/09/27 04:03:06;;;;;;;;;55.00;45.25;;;;;11.78;75.09;101591.56;5146849;27;11479;-71
2021/09/27 04:06:27;;;;;;;;;48.25;41.25;;;;;11.76;75.44;101595.78;5161231;27;11436;-71
2021/09/27 04:09:47;;;;;;;;;49.75;42.00;;;;;11.84;75.69;101592.28;5175136;27;11512;-71
2021/09/27 04:12:59;;;;;;;;;57.75;44.25;;;;;11.80;76.30;101605.94;5175123;27;11551;-72
2021/09/27 04:16:00;;;;;;;;;43.50;39.50;;;;;11.89;75.89;101601.28;5148225;27;11483;-72
2021/09/27 04:19:22;;;;;;;;;55.75;47.00;;;;;11.87;76.39;101586.09;5176289;27;11463;-72
2021/09/27 04:22:36;;;;;;;;;53.75;44.25;;;;;11.89;76.04;101590.19;5154929;27;11445;-73
2021/09/27 04:25:51;;;;;;;;;53.25;42.75;;;;;11.85;76.66;101594.72;5154608;27;11498;-71
2021/09/27 04:29:10;;;;;;;;;58.25;46.50;;;;;12.08;76.03;101598.25;5173628;27;11439;-73
2021/09/27 04:32:35;;;;;;;;;57.00;48.00;;;;;12.21;76.04;101596.53;5155847;27;11441;-72
2021/09/27 04:35:49;;;;;;;;;57.25;47.00;;;;;12.23;75.91;101595.06;5154720;27;12265;-72
2021/09/27 04:38:48;;;;;;;;;71.75;55.25;;;;;12.32;75.89;101606.19;5154664;27;11449;-73
2021/09/27 04:41:55;;;;;;;;;55.25;46.00;;;;;12.49;75.71;101592.38;5154574;27;11523;-73
2021/09/27 04:45:00;;;;;;;;;64.25;51.00;;;;;12.63;75.51;101597.81;5152963;27;11520;-73
2021/09/27 04:48:31;;;;;;;;;65.00;51.00;;;;;12.78;74.96;101607.63;5155054;27;11509;-73
2021/09/27 04:51:51;;;;;;;;;51.75;42.50;;;;;12.86;74.29;101606.84;5154390;27;11504;-72
2021/09/27 04:55:09;;;;;;;;;60.75;50.00;;;;;12.85;74.23;101607.97;5152913;27;11575;-73
2021/09/27 04:58:30;;;;;;;;;62.50;51.00;;;;;12.95;73.61;101604.06;5154202;27;11458;-73
2021/09/27 05:01:49;;;;;;;;;55.50;46.25;;;;;13.05;73.31;101609.31;5154307;27;11499;-73
2021/09/27 05:04:51;;;;;;;;;51.75;44.50;;;;;13.23;73.13;101607.41;5154256;27;11427;-72
2021/09/27 05:07:50;;;;;;;;;56.00;43.25;;;;;13.12;72.66;101603.28;5154425;27;11470;-73
2021/09/27 05:11:10;;;;;;;;;42.00;36.00;;;;;13.26;72.43;101607.56;5153952;27;11892;-73
2021/09/27 05:14:43;;;;;;;;;52.50;43.50;;;;;13.28;72.61;101605.28;5152631;27;11027;-74
2021/09/27 05:18:17;;;;;;;;;52.25;43.75;;;;;13.25;73.00;101599.56;5131690;27;11886;-75
2021/09/27 05:21:16;;;;;;;;;32.75;30.75;;;;;13.44;71.82;101594.50;5117778;27;11239;-77
2021/09/27 05:24:49;;;;;;;;;23.25;23.25;;;;;13.70;71.08;101608.34;5149330;27;10624;-77
2021/09/27 05:28:20;;;;;;;;;18.25;18.25;;;;;13.96;73.54;101607.47;5177578;27;10526;-73
2021/09/27 05:31:34;;;;;;;;;23.25;20.25;;;;;14.51;76.91;101607.44;5176583;27;10125;-75
2021/09/27 05:34:52;;;;;;;;;25.00;21.50;;;;;14.99;71.68;101617.31;5149833;27;10198;-73
2021/09/27 05:37:57;;;;;;;;;13.00;13.00;;;;;14.96;71.81;101612.44;5143068;27;10956;-74
2021/09/27 05:40:45;;;;;;;;;17.50;15.50;;;;;15.38;72.56;101624.38;5140076;27;9741;-73
2021/09/27 05:43:54;;;;;;;;;19.25;17.00;;;;;15.27;72.12;101628.75;5144272;27;9771;-75
2021/09/27 05:47:11;;;;;;;;;0.00;0.00;;;;;14.31;68.32;101624.84;5157344;27;9684;-73
2021/09/27 05:50:15;;;;;;;;;12.00;10.50;;;;;14.37;68.86;101627.13;5157081;27;9364;-74
2021/09/27 05:53:40;;;;;;;;;9.25;9.25;;;;;14.02;67.79;101634.75;5143173;27;9518;-76
2021/09/27 05:56:25;;;;;;;;;9.25;9.25;;;;;13.80;68.50;101633.03;5157787;27;9489;-75
2021/09/27 05:59:46;;;;;;;;;6.75;6.75;;;;;14.04;68.72;101629.72;5169661;27;10513;-76
2021/09/27 06:03:01;;;;;;;;;9.25;9.25;;;;;14.07;67.90;101633.78;4627885;27;15146884;-76
2021/09/27 06:05:46;;;;;;;;;10.00;9.25;;;;;13.87;68.65;101638.88;5125468;27;8832;-75
2021/09/27 06:08:59;;;;;;;;;6.00;6.00;;;;;14.11;67.83;101631.97;5116833;27;9533;-74
2021/09/27 06:12:05;;;;;;;;;10.50;10.50;;;;;14.13;67.44;101635.25;5145479;27;9781;-73
2021/09/27 06:15:03;;;;;;;;;6.75;6.75;;;;;14.47;66.95;101631.53;5136730;27;9841;-74
2021/09/27 06:18:25;;;;;;;;;5.50;5.50;;;;;14.70;66.14;101632.88;5135466;27;9558;-75
2021/09/27 06:21:45;;;;;;;;;9.75;9.75;;;;;14.86;66.35;101640.66;5136388;27;9777;-75
2021/09/27 06:24:36;;;;;;;;;10.00;10.00;;;;;14.76;65.65;101641.88;5150081;27;9598;-76
2021/09/27 06:28:08;;;;;;;;;11.75;11.75;;;;;14.65;66.13;101632.28;5149844;27;9368;-76
2021/09/27 06:30:41;;;;;;;;;11.33;11.00;;;;;14.54;66.28;101636.56;5150154;27;9505;-75
2021/09/27 06:33:43;;;;;;;;;13.00;13.00;;;;;14.55;66.15;101641.81;5148642;27;9311;-75
2021/09/27 06:36:40;;;;;;;;;7.25;7.25;;;;;14.74;66.30;101638.59;5131054;27;9575;-76
2021/09/27 06:39:36;;;;;;;;;7.33;7.33;;;;;15.04;64.55;101641.38;5146346;27;9627;-74
2021/09/27 06:42:31;;;;;;;;;7.50;7.50;;;;;14.76;64.67;101641.06;5151000;27;10152;-75
2021/09/27 06:45:27;;;;;;;;;9.67;9.67;;;;;14.96;64.66;101635.53;5136544;27;9436;-75
2021/09/27 06:48:24;;;;;;;;;5.33;5.33;;;;;15.25;64.25;101639.41;5132909;27;9367;-76
2021/09/27 06:51:21;;;;;;;;;11.00;11.00;;;;;15.18;64.42;101647.47;5115562;27;9372;-79
2021/09/27 06:54:19;;;;;;;;;6.00;6.00;;;;;15.16;63.03;101642.25;5115713;27;9462;-75
2021/09/27 06:57:14;;;;;;;;;8.00;7.67;;;;;15.36;61.76;101646.22;5115813;27;9065;-75
2021/09/27 07:00:12;;;;;;;;;7.33;7.33;;;;;15.72;61.66;101639.19;5132493;27;9215;-75
2021/09/27 07:03:07;;;;;;;;;8.33;7.67;;;;;15.49;60.79;101645.13;5129399;27;9296;-74
2021/09/27 07:05:52;;;;;;;;;12.00;7.67;;;;;15.71;59.57;101648.72;5114680;27;9079;-77
2021/09/27 07:08:47;;;;;;;;;5.67;5.67;;;;;15.68;59.83;101641.03;5126052;27;9154;-77
2021/09/27 07:11:44;;;;;;;;;4.33;4.33;;;;;15.60;59.92;101642.72;5134242;27;9146;-77
2021/09/27 07:14:40;;;;;;;;;7.33;7.33;;;;;15.59;60.32;101638.31;5123816;27;8970;-74
2021/09/27 07:17:37;;;;;;;;;7.00;7.00;;;;;16.07;59.00;101643.25;5132127;27;9069;-75
2021/09/27 07:20:32;;;;;;;;;8.67;8.67;;;;;16.19;58.87;101648.06;5106810;27;8920;-75
2021/09/27 07:23:28;;;;;;;;;6.00;6.00;;;;;16.40;57.35;101650.75;5101356;28;9001;-75
2021/09/27 07:26:23;;;;;;;;;6.25;6.25;;;;;16.71;57.75;101638.22;5116849;27;8829;-75
2021/09/27 07:29:21;;;;;;;;;11.67;11.67;;;;;16.75;57.05;101645.56;5101402;28;9613;-75
2021/09/27 07:32:17;;;;;;;;;11.25;11.25;;;;;17.12;56.37;101645.53;5122825;27;8984;-75
2021/09/27 07:35:16;;;;;;;;;10.25;10.00;;;;;17.21;56.88;101646.22;5126260;27;8828;-75
2021/09/27 07:38:12;;;;;;;;;16.50;16.50;;;;;16.43;56.23;101661.25;5114728;28;8845;-73
2021/09/27 07:41:22;;;;;;;;;22.67;22.67;;;;;16.29;57.19;101666.34;5109271;27;13674;-74
2021/09/27 07:44:05;;;;;;;;;28.33;25.00;;;;;16.45;56.78;101666.47;4669023;27;15055183;-73
2021/09/27 07:46:45;;;;;;;;;22.00;22.00;;;;;16.88;56.41;101652.78;5145797;27;1354741;-74
2021/09/27 07:49:13;;;;;;;;;19.00;18.00;;;;;17.12;55.25;101657.53;5153687;27;8908;-75
2021/09/27 07:52:08;;;;;;;;;13.50;13.50;;;;;17.25;55.01;101652.72;5136852;27;9140;-74
2021/09/27 07:54:39;;;;;;;;;7.25;7.25;;;;;17.26;54.15;101653.56;5152263;27;8977;-73
2021/09/27 07:57:35;;;;;;;;;40.67;32.33;;;;;17.14;54.96;101644.00;5131966;27;8813;-78
2021/09/27 08:00:32;;;;;;;;;47.00;40.00;;;;;17.09;56.37;101652.63;5137216;27;9295;-76
2021/09/27 08:03:27;;;;;;;;;26.00;22.00;;;;;17.02;55.27;101648.78;5142565;27;9830;-78
2021/09/27 08:05:55;;;;;;;;;21.00;20.00;;;;;16.91;55.00;101646.50;5139206;27;9880;-76
2021/09/27 08:08:51;;;;;;;;;16.50;16.25;;;;;16.98;54.99;101657.09;5150258;27;8990;-73
2021/09/27 08:11:40;;;;;;;;;19.33;16.67;;;;;17.40;53.84;101651.97;5118433;27;8958;-72
2021/09/27 08:14:08;;;;;;;;;25.25;24.00;;;;;17.98;52.85;101651.66;5151702;27;8989;-73
2021/09/27 08:16:36;;;;;;;;;21.25;20.00;;;;;18.11;52.98;101652.41;5152028;27;9670;-72
2021/09/27 08:19:06;;;;;;;;;29.67;27.67;;;;;18.01;53.41;101654.53;5133396;27;8861;-74
2021/09/27 08:21:34;;;;;;;;;19.50;19.50;;;;;17.36;52.27;101653.06;5151357;27;9015;-73
2021/09/27 08:24:01;;;;;;;;;14.00;13.50;;;;;17.14;53.62;101654.38;5151283;27;8835;-71
2021/09/27 08:26:29;;;;;;;;;19.50;19.00;;;;;17.26;53.58;101642.38;5151618;27;8839;-72
2021/09/27 08:28:57;;;;;;;;;20.00;18.75;;;;;17.55;52.83;101638.41;5151474;27;8835;-72
2021/09/27 08:31:25;;;;;;;;;18.33;17.67;;;;;17.73;52.60;101642.59;5150844;27;8838;-73
2021/09/27 08:33:53;;;;;;;;;23.67;21.33;;;;;17.44;53.30;101641.72;5151164;27;8994;-73
2021/09/27 08:36:24;;;;;;;;;10.75;9.75;;;;;17.40;52.20;101649.19;5151445;27;8959;-73
2021/09/27 08:38:53;;;;;;;;;8.50;8.50;;;;;17.83;51.51;101652.44;5151235;27;8831;-72
2021/09/27 08:41:30;;;;;;;;;15.50;12.25;;;;;17.81;50.96;101640.78;5151010;27;8919;-73
2021/09/27 08:44:06;;;;;;;;;5.00;5.00;;;;;17.78;49.00;101653.50;5151301;27;8842;-72
2021/09/27 08:46:42;;;;;;;;;6.00;5.50;;;;;17.71;48.32;101644.91;5151111;27;8823;-72
2021/09/27 08:49:47;;;;;;;;;4.00;4.00;;;;;18.27;47.22;101642.03;5150992;27;8827;-73
2021/09/27 08:52:18;;;;;;;;;7.00;7.00;;;;;18.76;47.69;101639.69;5151211;27;8827;-72
2021/09/27 08:54:49;;;;;;;;;1.75;1.75;;;;;19.07;46.27;101643.59;5150697;27;8851;-73
2021/09/27 08:57:46;;;;;;;;;16.00;15.00;;;;;18.60;47.61;101639.69;5123691;27;8854;-73
2021/09/27 09:00:56;;;;;;;;;27.00;24.50;;;;;18.38;48.71;101636.72;5121989;27;8843;-74
2021/09/27 09:03:41;;;;;;;;;19.25;17.75;;;;;18.23;47.20;101638.31;5136957;27;8811;-73
2021/09/27 09:06:21;;;;;;;;;22.25;18.25;;;;;18.33;47.48;101641.41;5136937;27;8851;-73
2021/09/27 09:09:36;;;;;;;;;20.75;19.50;;;;;18.42;47.81;101638.44;5136961;27;8956;-73
2021/09/27 09:12:33;;;;;;;;;26.67;23.33;;;;;18.49;48.29;101635.81;5121521;27;8912;-73
2021/09/27 09:15:24;;;;;;;;;23.50;20.50;;;;;18.21;48.66;101637.88;5136426;27;8928;-73
2021/09/27 09:18:17;;;;;;;;;22.00;20.75;;;;;18.40;46.99;101637.97;5136634;27;8850;-74
2021/09/27 09:21:14;;;;;;;;;18.00;15.75;;;;;18.56;45.11;101643.59;5136418;27;8953;-74
2021/09/27 09:23:53;;;;;;;;;8.50;8.50;;;;;18.16;45.17;101643.72;5118110;27;8840;-72
2021/09/27 09:26:27;;;;;;;;;6.75;6.75;;;;;18.89;45.25;101640.41;5118440;27;8827;-74
2021/09/27 09:28:56;;;;;;;;;5.50;5.50;;;;;19.31;43.57;101643.34;5136405;27;8839;-73
2021/09/27 09:31:37;;;;;;;;;5.00;5.00;;;;;19.32;43.69;101633.78;5136489;27;8835;-73
2021/09/27 09:34:32;;;;;;;;;2.50;2.50;;;;;18.76;42.47;101639.69;5136174;27;8904;-73
2021/09/27 09:37:08;;;;;;;;;8.50;8.50;;;;;18.55;44.80;101639.13;5118328;27;8835;-72
2021/09/27 09:39:51;;;;;;;;;6.00;6.00;;;;;18.75;43.66;101640.88;5136051;27;8855;-73
2021/09/27 09:42:20;;;;;;;;;2.00;2.00;;;;;18.59;42.75;101632.47;5136305;27;8831;-73
2021/09/27 09:45:18;;;;;;;;;2.00;2.00;;;;;18.80;41.23;101639.78;5120716;27;8835;-71
2021/09/27 09:47:46;;;;;;;;;9.25;9.25;;;;;19.45;42.04;101631.63;5117982;27;8854;-73
2021/09/27 09:50:34;;;;;;;;;10.25;9.00;;;;;19.77;42.18;101635.09;5135846;27;8847;-73
2021/09/27 09:53:36;;;;;;;;;7.00;7.00;;;;;20.32;40.56;101635.75;5136201;27;8827;-73
2021/09/27 09:56:20;;;;;;;;;7.75;7.75;;;;;19.86;41.46;101644.13;5136129;27;8893;-73
2021/09/27 09:58:49;;;;;;;;;6.00;6.00;;;;;19.06;42.01;101642.00;5115736;27;8978;-73
2021/09/27 10:01:37;;;;;;;;;4.00;4.00;;;;;18.68;42.33;101645.50;5135737;27;8923;-74
2021/09/27 10:04:19;;;;;;;;;3.75;3.25;;;;;18.42;42.52;101635.63;5135811;27;8831;-73
2021/09/27 10:07:25;;;;;;;;;11.75;11.50;;;;;18.94;42.33;101639.28;5121955;27;8905;-74
2021/09/27 10:10:28;;;;;;;;;10.75;10.75;;;;;18.68;42.52;101642.69;5135078;27;8839;-74
2021/09/27 10:12:59;;;;;;;;;5.50;5.50;;;;;18.48;42.73;101650.16;5135382;27;8984;-73
2021/09/27 10:15:38;;;;;;;;;8.75;8.75;;;;;18.59;42.83;101645.66;5135500;27;8843;-74
2021/09/27 10:18:13;;;;;;;;;13.50;12.50;;;;;18.63;43.84;101649.34;5135494;27;8827;-73
2021/09/27 10:21:16;;;;;;;;;1.50;0.00;;;;;18.63;43.11;101646.53;5135297;27;8896;-74
2021/09/27 10:24:20;;;;;;;;;4.75;4.75;;;;;18.47;42.83;101649.34;5135358;27;8847;-73
2021/09/27 10:27:44;;;;;;;;;3.75;3.75;;;;;17.98;43.27;101649.69;5135342;27;8851;-73
2021/09/27 10:30:22;;;;;;;;;3.00;3.00;;;;;19.28;42.10;101635.69;5135477;27;8961;-73
2021/09/27 10:32:57;;;;;;;;;4.00;4.00;;;;;20.00;39.32;101638.75;5134903;27;9576;-73
2021/09/27 10:35:58;;;;;;;;;8.50;8.50;;;;;20.35;39.04;101632.19;5135285;27;8847;-73
2021/09/27 10:38:41;;;;;;;;;7.75;7.75;;;;;20.76;38.50;101641.72;5116636;27;8846;-73
2021/09/27 10:41:20;;;;;;;;;9.00;9.00;;;;;20.40;37.73;101637.50;5134962;27;8815;-73
2021/09/27 10:43:53;;;;;;;;;8.00;8.00;;;;;20.76;38.28;101638.09;5135152;27;8842;-73
2021/09/27 10:46:30;;;;;;;;;7.00;7.00;;;;;20.39;39.93;101637.84;5100453;28;8834;-73
2021/09/27 10:48:58;;;;;;;;;6.50;6.50;;;;;19.93;40.07;101629.41;5092864;28;8838;-73
2021/09/27 10:51:53;;;;;;;;;6.00;6.00;;;;;19.58;40.23;101629.53;5093570;28;8845;-73
2021/09/27 10:54:27;;;;;;;;;4.00;4.00;;;;;19.44;40.31;101630.00;5093644;28;8867;-73
2021/09/27 10:56:56;;;;;;;;;3.25;3.25;;;;;19.33;41.06;101628.97;5092583;28;8849;-73
2021/09/27 10:59:35;;;;;;;;;4.25;4.25;;;;;19.26;40.94;101634.44;5093692;28;8857;-74
2021/09/27 11:02:22;;;;;;;;;8.75;8.75;;;;;19.07;40.76;101623.97;5093685;28;8940;-73
2021/09/27 11:05:01;;;;;;;;;5.00;5.00;;;;;18.98;41.55;101624.19;5093735;28;9689;-73
2021/09/27 11:07:45;;;;;;;;;6.00;6.00;;;;;19.86;40.67;101620.84;5093303;28;8834;-73
2021/09/27 11:10:29;;;;;;;;;12.25;12.25;;;;;20.61;39.27;101625.00;5093464;28;8833;-73
2021/09/27 11:13:49;;;;;;;;;13.00;12.75;;;;;20.74;39.50;101629.22;5093375;28;8850;-74
2021/09/27 11:16:40;;;;;;;;;9.00;9.00;;;;;20.33;39.26;101630.94;5068812;28;8880;-73
2021/09/27 11:19:27;;;;;;;;;7.00;6.25;;;;;19.33;39.98;101628.97;5093150;28;8849;-72
2021/09/27 11:22:17;;;;;;;;;7.00;6.25;;;;;19.45;40.73;101631.63;5092512;28;8833;-73
2021/09/27 11:24:45;;;;;;;;;9.25;9.25;;;;;19.76;39.97;101629.88;5092962;28;8833;-73
2021/09/27 11:27:18;;;;;;;;;7.25;7.25;;;;;20.19;39.46;101629.50;5093155;28;8940;-73
2021/09/27 11:29:50;;;;;;;;;10.75;10.75;;;;;21.04;38.36;101626.47;5090862;28;8899;-73
2021/09/27 11:32:50;;;;;;;;;12.25;12.00;;;;;21.16;38.12;101617.78;5071768;28;8847;-72
2021/09/27 11:35:46;;;;;;;;;4.75;4.75;;;;;20.66;37.91;101635.94;5072931;28;8836;-73
2021/09/27 11:38:40;;;;;;;;;6.75;6.75;;;;;19.73;39.54;101625.81;5073392;28;8871;-73
2021/09/27 11:41:10;;;;;;;;;4.75;4.75;;;;;19.16;41.42;101625.41;5072780;28;8938;-73
2021/09/27 11:43:53;;;;;;;;;5.75;5.50;;;;;19.60;41.21;101633.56;5072771;28;8816;-73
2021/09/27 11:47:10;;;;;;;;;4.00;4.00;;;;;20.36;39.81;101630.19;5105706;28;8864;-73
2021/09/27 11:50:26;;;;;;;;;10.50;6.50;;;;;20.41;38.99;101636.31;5114691;28;8839;-73
2021/09/27 11:53:37;;;;;;;;;4.50;4.50;;;;;19.68;39.85;101632.53;5112516;28;8849;-72
2021/09/27 11:57:03;;;;;;;;;2.25;2.25;;;;;19.40;40.25;101623.53;5112399;28;8893;-72
2021/09/27 11:59:48;;;;;;;;;3.50;3.50;;;;;19.25;40.68;101632.81;5113363;28;8952;-72
2021/09/27 12:02:39;;;;;;;;;3.00;3.00;;;;;19.13;41.79;101631.75;5112845;27;8918;-72
2021/09/27 12:05:21;;;;;;;;;18.00;15.75;;;;;19.12;41.32;101630.13;5104658;28;8865;-73
2021/09/27 12:07:55;;;;;;;;;8.50;8.50;;;;;19.07;41.13;101632.41;5113156;28;8829;-73
2021/09/27 12:11:02;;;;;;;;;22.75;20.75;;;;;18.93;41.08;101632.88;5112123;28;8851;-73
2021/09/27 12:14:04;;;;;;;;;7.75;6.25;;;;;18.73;41.31;101639.63;5112287;28;8825;-72
2021/09/27 12:17:03;;;;;;;;;17.75;16.25;;;;;18.85;43.20;101637.50;5098523;28;8843;-73
2021/09/27 12:19:51;;;;;;;;;11.00;10.25;;;;;18.99;42.45;101639.84;5112885;28;8857;-72
2021/09/27 12:22:29;;;;;;;;;13.00;13.00;;;;;19.33;42.08;101643.81;5113361;28;8860;-72
2021/09/27 12:25:35;;;;;;;;;16.25;15.00;;;;;19.56;41.63;101640.28;5111867;28;8817;-73
2021/09/27 12:28:31;;;;;;;;;20.50;17.75;;;;;19.28;41.38;101635.69;5112137;28;9611;-73
2021/09/27 12:31:27;;;;;;;;;15.00;14.75;;;;;19.27;41.58;101630.44;5112103;28;8829;-73
2021/09/27 12:34:14;;;;;;;;;21.25;21.25;;;;;19.17;41.96;101627.03;5123113;27;8819;-73
2021/09/27 12:37:11;;;;;;;;;28.00;26.50;;;;;18.92;42.15;101625.66;5115703;28;8818;-79
2021/09/27 12:40:11;;;;;;;;;27.25;23.50;;;;;18.85;43.03;101620.69;5128299;27;8842;-78
2021/09/27 12:43:15;;;;;;;;;13.75;13.75;;;;;18.68;43.18;101629.50;5121786;27;8823;-78
2021/09/27 12:45:49;;;;;;;;;15.25;14.75;;;;;18.48;43.19;101633.34;5136888;27;8869;-79
2021/09/27 12:48:49;;;;;;;;;8.00;8.00;;;;;18.40;42.72;101632.34;5109900;27;8949;-78
2021/09/27 12:51:51;;;;;;;;;3.00;3.00;;;;;17.92;43.51;101631.50;5102044;27;8821;-78
2021/09/27 12:54:53;;;;;;;;;2.00;2.00;;;;;17.88;43.03;101639.00;5119759;27;8821;-76
2021/09/27 12:57:55;;;;;;;;;2.00;2.00;;;;;17.93;44.51;101635.94;5115506;28;8828;-80
2021/09/27 13:00:27;;;;;;;;;5.50;5.50;;;;;17.99;44.67;101631.69;5131173;27;8846;-79
2021/09/27 13:03:28;;;;;;;;;6.00;6.00;;;;;17.99;43.92;101634.50;5115628;28;8948;-78
2021/09/27 13:06:27;;;;;;;;;8.25;8.25;;;;;17.73;43.70;101628.59;5120600;27;8830;-77
2021/09/27 13:09:26;;;;;;;;;5.50;5.50;;;;;18.02;44.78;101628.22;5114823;28;8884;-78
2021/09/27 13:12:33;;;;;;;;;8.25;7.25;;;;;17.87;44.71;101628.19;5114899;27;8829;-75
2021/09/27 13:15:44;;;;;;;;;14.75;14.75;;;;;17.78;44.95;101640.31;5125606;27;8835;-78
2021/09/27 13:18:44;;;;;;;;;13.50;12.75;;;;;17.73;44.35;101628.59;5115262;28;8821;-79
2021/09/27 13:21:47;;;;;;;;;12.75;12.25;;;;;17.78;45.11;101634.72;5121675;27;8849;-80
2021/09/27 13:24:45;;;;;;;;;5.00;5.00;;;;;17.99;45.03;101628.91;5135829;27;8846;-78
2021/09/27 13:27:20;;;;;;;;;6.00;6.00;;;;;17.74;45.88;101642.22;5135558;27;8964;-77
2021/09/27 13:30:22;;;;;;;;;17.50;16.00;;;;;17.47;45.86;101635.41;5135727;27;8823;-78
2021/09/27 13:33:38;;;;;;;;;20.25;19.25;;;;;17.58;45.80;101634.91;5121061;27;8911;-79
2021/09/27 13:36:47;;;;;;;;;17.25;15.50;;;;;17.51;45.31;101635.53;5116204;27;8872;-78
2021/09/27 13:39:43;;;;;;;;;22.00;16.50;;;;;17.62;45.82;101644.22;5119862;27;8823;-79
2021/09/27 13:42:47;;;;;;;;;23.00;20.67;;;;;17.61;46.00;101635.00;5116008;27;8821;-77